Terminal Aerodrome Forecast
Issued by NWS

Home | Current Version | Previous Version | Text Only | Print | Product List | Glossary On
Versions: 1 2 3 4 5 6 7 8 9 10 11 12 13 14 15 16 17 18 19 20 21 22 23 24 25 26 27 28
000
FTUS45 KLKN 211120
TAFWMC
TAF
KWMC 211120Z 2112/2212 30009KT P6SM VCSH SCT045 OVC060
     FM211700 32011G19KT P6SM VCSH SCT045 BKN060
     FM220200 33007KT P6SM SCT050 BKN080=

USA.gov is the U.S. government's official web portal to all federal, state and local government web resources and services.